Mounds View, Minnesota
Current Conditions -  °F | °C
As of 8:30 AM on Sunday 23 Nov 2014 (Local Time) from KANE Reporting Station
Moderate Fog Moderate Fog  
Wind Chill: 42°   Ceiling: 700
Heat Index: 45°   Visibility: 0.25mi
Dew Point: 45°   Wind: 5mph
Humidity: 100%   Direction: 190°S
Pressure: 29.45"   Gusts: NA
Location:  45.0755°N, 93.1911°W
Report Text: KANE 231430Z 19004KT 1/4SM FG OVC007 07/07 A2945
Loading
Personal Weather Stations






























Interactive Weather Map New forecast layout! Learn more

10-Day Weather Forecast

Advertisements
Track Severe Weather on mobile